sensor_id;sensor_type;location;lat;lon;timestamp;P1;durP1;ratioP1;P2;durP2;ratioP2
7823;SDS011;3957;48.61947800;9.05303100;2023-03-01T00:00:49;84.27;;;33.13;;
7823;SDS011;3957;48.61947800;9.05303100;2023-03-01T00:01:50;93.10;;;35.07;;
7823;SDS011;3957;48.61947800;9.05303100;2023-03-01T00:02:50;99.40;;;37.38;;
7823;SDS011;3957;48.61947800;9.05303100;2023-03-01T00:03:51;97.40;;;37.20;;
7823;SDS011;3957;48.61947800;9.05303100;2023-03-01T00:04:52;103.90;;;37.38;;
7823;SDS011;3957;48.61947800;9.05303100;2023-03-01T00:05:52;102.10;;;36.07;;
7823;SDS011;3957;48.61947800;9.05303100;2023-03-01T00:06:53;99.57;;;35.90;;
7823;SDS011;3957;48.61947800;9.05303100;2023-03-01T00:07:54;95.20;;;35.20;;
7823;SDS011;3957;48.61947800;9.05303100;2023-03-01T00:08:54;99.10;;;35.93;;
7823;SDS011;3957;48.61947800;9.05303100;2023-03-01T00:09:55;102.10;;;37.13;;
7823;SDS011;3957;48.61947800;9.05303100;2023-03-01T00:11:02;105.00;;;37.07;;
7823;SDS011;3957;48.61947800;9.05303100;2023-03-01T00:12:07;94.50;;;36.65;;
7823;SDS011;3957;48.61947800;9.05303100;2023-03-01T00:13:08;85.38;;;34.50;;
7823;SDS011;3957;48.61947800;9.05303100;2023-03-01T00:14:08;74.00;;;30.47;;
7823;SDS011;3957;48.61947800;9.05303100;2023-03-01T00:15:09;61.63;;;25.70;;
7823;SDS011;3957;48.61947800;9.05303100;2023-03-01T00:16:10;56.85;;;25.88;;
7823;SDS011;3957;48.61947800;9.05303100;2023-03-01T00:17:15;49.80;;;23.60;;
7823;SDS011;3957;48.61947800;9.05303100;2023-03-01T00:18:16;43.37;;;20.57;;
7823;SDS011;3957;48.61947800;9.05303100;2023-03-01T00:19:18;36.23;;;18.23;;
7823;SDS011;3957;48.61947800;9.05303100;2023-03-01T00:20:19;33.03;;;17.83;;
7823;SDS011;3957;48.61947800;9.05303100;2023-03-01T00:21:20;29.73;;;16.10;;
7823;SDS011;3957;48.61947800;9.05303100;2023-03-01T00:22:23;30.35;;;17.27;;
7823;SDS011;3957;48.61947800;9.05303100;2023-03-01T00:23:26;24.75;;;14.60;;
7823;SDS011;3957;48.61947800;9.05303100;2023-03-01T00:24:27;23.70;;;14.55;;
7823;SDS011;3957;48.61947800;9.05303100;2023-03-01T00:25:27;21.77;;;13.43;;
7823;SDS011;3957;48.61947800;9.05303100;2023-03-01T00:26:27;19.73;;;12.68;;
7823;SDS011;3957;48.61947800;9.05303100;2023-03-01T00:27:28;20.43;;;13.03;;
7823;SDS011;3957;48.61947800;9.05303100;2023-03-01T00:28:28;18.90;;;12.03;;
7823;SDS011;3957;48.61947800;9.05303100;2023-03-01T00:29:29;18.87;;;12.07;;
7823;SDS011;3957;48.61947800;9.05303100;2023-03-01T00:30:29;18.67;;;11.87;;
7823;SDS011;3957;48.61947800;9.05303100;2023-03-01T00:31:30;20.60;;;12.82;;
7823;SDS011;3957;48.61947800;9.05303100;2023-03-01T00:32:32;20.80;;;13.30;;
7823;SDS011;3957;48.61947800;9.05303100;2023-03-01T00:33:33;20.83;;;13.70;;
7823;SDS011;3957;48.61947800;9.05303100;2023-03-01T00:34:33;21.17;;;13.55;;
7823;SDS011;3957;48.61947800;9.05303100;2023-03-01T00:35:34;19.37;;;13.20;;
7823;SDS011;3957;48.61947800;9.05303100;2023-03-01T00:36:35;23.65;;;13.20;;
7823;SDS011;3957;48.61947800;9.05303100;2023-03-01T00:37:37;24.85;;;13.82;;
7823;SDS011;3957;48.61947800;9.05303100;2023-03-01T00:38:38;22.63;;;14.27;;
7823;SDS011;3957;48.61947800;9.05303100;2023-03-01T00:39:39;25.30;;;14.60;;
7823;SDS011;3957;48.61947800;9.05303100;2023-03-01T00:40:40;24.73;;;13.80;;
7823;SDS011;3957;48.61947800;9.05303100;2023-03-01T00:41:40;24.80;;;14.73;;
7823;SDS011;3957;48.61947800;9.05303100;2023-03-01T00:42:42;23.25;;;14.73;;
7823;SDS011;3957;48.61947800;9.05303100;2023-03-01T00:43:42;27.58;;;15.63;;
7823;SDS011;3957;48.61947800;9.05303100;2023-03-01T00:44:43;26.77;;;15.32;;
7823;SDS011;3957;48.61947800;9.05303100;2023-03-01T00:45:44;29.23;;;16.20;;
7823;SDS011;3957;48.61947800;9.05303100;2023-03-01T00:46:44;29.20;;;16.17;;
7823;SDS011;3957;48.61947800;9.05303100;2023-03-01T00:47:45;27.08;;;15.98;;
7823;SDS011;3957;48.61947800;9.05303100;2023-03-01T00:48:45;23.40;;;14.03;;
7823;SDS011;3957;48.61947800;9.05303100;2023-03-01T00:49:46;19.98;;;13.73;;
7823;SDS011;3957;48.61947800;9.05303100;2023-03-01T00:50:46;21.77;;;13.65;;
7823;SDS011;3957;48.61947800;9.05303100;2023-03-01T00:51:46;23.40;;;14.07;;
7823;SDS011;3957;48.61947800;9.05303100;2023-03-01T00:52:51;19.50;;;13.07;;
7823;SDS011;3957;48.61947800;9.05303100;2023-03-01T00:53:53;20.20;;;12.93;;
7823;SDS011;3957;48.61947800;9.05303100;2023-03-01T00:54:55;20.48;;;13.20;;
7823;SDS011;3957;48.61947800;9.05303100;2023-03-01T00:55:56;19.23;;;12.82;;
7823;SDS011;3957;48.61947800;9.05303100;2023-03-01T00:56:58;18.02;;;12.50;;
7823;SDS011;3957;48.61947800;9.05303100;2023-03-01T00:57:58;18.58;;;12.75;;
7823;SDS011;3957;48.61947800;9.05303100;2023-03-01T00:58:58;20.10;;;13.10;;
7823;SDS011;3957;48.61947800;9.05303100;2023-03-01T00:59:59;21.75;;;12.73;;
7823;SDS011;3957;48.61947800;9.05303100;2023-03-01T01:01:00;18.13;;;12.55;;
7823;SDS011;3957;48.61947800;9.05303100;2023-03-01T01:02:00;17.90;;;12.75;;
7823;SDS011;3957;48.61947800;9.05303100;2023-03-01T01:03:00;20.27;;;13.03;;
7823;SDS011;3957;48.61947800;9.05303100;2023-03-01T01:04:02;17.90;;;12.18;;
7823;SDS011;3957;48.61947800;9.05303100;2023-03-01T01:05:05;19.13;;;12.82;;
7823;SDS011;3957;48.61947800;9.05303100;2023-03-01T01:06:12;19.80;;;13.27;;
7823;SDS011;3957;48.61947800;9.05303100;2023-03-01T01:07:13;20.52;;;13.55;;
7823;SDS011;3957;48.61947800;9.05303100;2023-03-01T01:08:14;21.10;;;12.85;;
7823;SDS011;3957;48.61947800;9.05303100;2023-03-01T01:09:16;18.77;;;12.97;;
7823;SDS011;3957;48.61947800;9.05303100;2023-03-01T01:10:17;19.02;;;13.00;;
7823;SDS011;3957;48.61947800;9.05303100;2023-03-01T01:11:17;21.33;;;14.03;;
7823;SDS011;3957;48.61947800;9.05303100;2023-03-01T01:12:18;18.10;;;12.93;;
7823;SDS011;3957;48.61947800;9.05303100;2023-03-01T01:13:19;20.63;;;13.00;;
7823;SDS011;3957;48.61947800;9.05303100;2023-03-01T01:14:19;17.10;;;11.77;;
7823;SDS011;3957;48.61947800;9.05303100;2023-03-01T01:15:20;20.52;;;12.70;;
7823;SDS011;3957;48.61947800;9.05303100;2023-03-01T01:16:21;19.00;;;12.73;;
7823;SDS011;3957;48.61947800;9.05303100;2023-03-01T01:17:23;19.52;;;13.20;;
7823;SDS011;3957;48.61947800;9.05303100;2023-03-01T01:18:23;18.73;;;12.77;;
7823;SDS011;3957;48.61947800;9.05303100;2023-03-01T01:19:24;17.60;;;12.07;;
7823;SDS011;3957;48.61947800;9.05303100;2023-03-01T01:20:25;20.33;;;13.20;;
7823;SDS011;3957;48.61947800;9.05303100;2023-03-01T01:21:26;19.57;;;12.87;;
7823;SDS011;3957;48.61947800;9.05303100;2023-03-01T01:22:27;18.08;;;12.52;;
7823;SDS011;3957;48.61947800;9.05303100;2023-03-01T01:23:27;17.43;;;12.70;;
7823;SDS011;3957;48.61947800;9.05303100;2023-03-01T01:24:28;19.95;;;13.07;;
7823;SDS011;3957;48.61947800;9.05303100;2023-03-01T01:25:28;20.63;;;13.13;;
7823;SDS011;3957;48.61947800;9.05303100;2023-03-01T01:26:29;20.27;;;13.27;;
7823;SDS011;3957;48.61947800;9.05303100;2023-03-01T01:27:31;18.65;;;12.38;;
7823;SDS011;3957;48.61947800;9.05303100;2023-03-01T01:28:32;19.63;;;13.45;;
7823;SDS011;3957;48.61947800;9.05303100;2023-03-01T01:29:32;19.90;;;13.80;;
7823;SDS011;3957;48.61947800;9.05303100;2023-03-01T01:30:33;18.20;;;12.07;;
7823;SDS011;3957;48.61947800;9.05303100;2023-03-01T01:31:33;19.85;;;13.23;;
7823;SDS011;3957;48.61947800;9.05303100;2023-03-01T01:32:35;20.23;;;13.25;;
7823;SDS011;3957;48.61947800;9.05303100;2023-03-01T01:33:36;20.33;;;12.83;;
7823;SDS011;3957;48.61947800;9.05303100;2023-03-01T01:34:37;20.13;;;13.13;;
7823;SDS011;3957;48.61947800;9.05303100;2023-03-01T01:35:38;20.50;;;13.18;;
7823;SDS011;3957;48.61947800;9.05303100;2023-03-01T01:36:38;21.67;;;14.18;;
7823;SDS011;3957;48.61947800;9.05303100;2023-03-01T01:37:39;21.17;;;13.60;;
7823;SDS011;3957;48.61947800;9.05303100;2023-03-01T01:38:39;18.98;;;12.70;;
7823;SDS011;3957;48.61947800;9.05303100;2023-03-01T01:39:39;21.90;;;13.13;;
7823;SDS011;3957;48.61947800;9.05303100;2023-03-01T01:40:44;17.55;;;12.90;;
7823;SDS011;3957;48.61947800;9.05303100;2023-03-01T01:41:48;19.88;;;13.38;;
7823;SDS011;3957;48.61947800;9.05303100;2023-03-01T01:42:48;24.25;;;13.93;;
7823;SDS011;3957;48.61947800;9.05303100;2023-03-01T01:44:08;24.37;;;13.63;;
7823;SDS011;3957;48.61947800;9.05303100;2023-03-01T01:45:26;21.23;;;13.65;;
7823;SDS011;3957;48.61947800;9.05303100;2023-03-01T01:46:35;18.33;;;12.80;;
7823;SDS011;3957;48.61947800;9.05303100;2023-03-01T01:47:38;21.15;;;14.07;;
7823;SDS011;3957;48.61947800;9.05303100;2023-03-01T01:48:40;21.80;;;13.90;;
7823;SDS011;3957;48.61947800;9.05303100;2023-03-01T01:49:44;21.73;;;14.23;;
7823;SDS011;3957;48.61947800;9.05303100;2023-03-01T01:50:52;23.65;;;13.68;;
7823;SDS011;3957;48.61947800;9.05303100;2023-03-01T01:52:00;20.58;;;14.00;;
7823;SDS011;3957;48.61947800;9.05303100;2023-03-01T01:53:15;23.27;;;14.85;;
7823;SDS011;3957;48.61947800;9.05303100;2023-03-01T01:54:20;22.20;;;14.35;;
7823;SDS011;3957;48.61947800;9.05303100;2023-03-01T01:55:25;22.92;;;13.70;;
7823;SDS011;3957;48.61947800;9.05303100;2023-03-01T01:56:27;24.02;;;14.15;;
7823;SDS011;3957;48.61947800;9.05303100;2023-03-01T01:57:31;21.10;;;13.82;;
7823;SDS011;3957;48.61947800;9.05303100;2023-03-01T01:58:34;20.92;;;12.98;;
7823;SDS011;3957;48.61947800;9.05303100;2023-03-01T01:59:36;20.80;;;13.25;;
7823;SDS011;3957;48.61947800;9.05303100;2023-03-01T02:00:37;20.67;;;14.32;;
7823;SDS011;3957;48.61947800;9.05303100;2023-03-01T02:01:39;23.52;;;13.98;;
7823;SDS011;3957;48.61947800;9.05303100;2023-03-01T02:02:39;21.60;;;13.75;;
7823;SDS011;3957;48.61947800;9.05303100;2023-03-01T02:03:43;20.20;;;13.10;;
7823;SDS011;3957;48.61947800;9.05303100;2023-03-01T02:04:47;19.58;;;13.55;;
7823;SDS011;3957;48.61947800;9.05303100;2023-03-01T02:05:51;23.42;;;13.73;;
7823;SDS011;3957;48.61947800;9.05303100;2023-03-01T02:06:58;19.75;;;13.48;;
7823;SDS011;3957;48.61947800;9.05303100;2023-03-01T02:08:04;20.48;;;13.35;;
7823;SDS011;3957;48.61947800;9.05303100;2023-03-01T02:09:07;21.35;;;13.93;;
7823;SDS011;3957;48.61947800;9.05303100;2023-03-01T02:10:12;23.02;;;14.18;;
7823;SDS011;3957;48.61947800;9.05303100;2023-03-01T02:11:13;20.25;;;13.02;;
7823;SDS011;3957;48.61947800;9.05303100;2023-03-01T02:12:15;18.58;;;12.90;;
7823;SDS011;3957;48.61947800;9.05303100;2023-03-01T02:13:18;21.25;;;13.00;;
7823;SDS011;3957;48.61947800;9.05303100;2023-03-01T02:14:18;23.38;;;14.52;;
7823;SDS011;3957;48.61947800;9.05303100;2023-03-01T02:15:19;21.70;;;13.33;;
7823;SDS011;3957;48.61947800;9.05303100;2023-03-01T02:16:20;19.45;;;12.90;;
7823;SDS011;3957;48.61947800;9.05303100;2023-03-01T02:17:21;20.73;;;13.90;;
7823;SDS011;3957;48.61947800;9.05303100;2023-03-01T02:18:22;21.25;;;13.48;;
7823;SDS011;3957;48.61947800;9.05303100;2023-03-01T02:20:44;20.13;;;13.18;;
7823;SDS011;3957;48.61947800;9.05303100;2023-03-01T02:22:20;19.77;;;13.95;;
7823;SDS011;3957;48.61947800;9.05303100;2023-03-01T02:23:18;20.73;;;13.43;;
7823;SDS011;3957;48.61947800;9.05303100;2023-03-01T02:24:31;22.13;;;14.20;;
7823;SDS011;3957;48.61947800;9.05303100;2023-03-01T02:26:51;21.08;;;13.52;;
7823;SDS011;3957;48.61947800;9.05303100;2023-03-01T02:28:58;20.40;;;13.75;;
7823;SDS011;3957;48.61947800;9.05303100;2023-03-01T02:30:00;21.70;;;13.88;;
7823;SDS011;3957;48.61947800;9.05303100;2023-03-01T02:31:00;21.85;;;14.15;;
7823;SDS011;3957;48.61947800;9.05303100;2023-03-01T02:32:21;22.27;;;13.20;;
7823;SDS011;3957;48.61947800;9.05303100;2023-03-01T02:33:25;23.20;;;14.57;;
7823;SDS011;3957;48.61947800;9.05303100;2023-03-01T02:34:27;21.33;;;13.70;;
7823;SDS011;3957;48.61947800;9.05303100;2023-03-01T02:35:30;20.23;;;13.15;;
7823;SDS011;3957;48.61947800;9.05303100;2023-03-01T02:36:36;23.33;;;13.85;;
7823;SDS011;3957;48.61947800;9.05303100;2023-03-01T02:37:39;23.90;;;14.52;;
7823;SDS011;3957;48.61947800;9.05303100;2023-03-01T02:38:42;22.38;;;13.27;;
7823;SDS011;3957;48.61947800;9.05303100;2023-03-01T02:39:45;22.95;;;13.80;;
7823;SDS011;3957;48.61947800;9.05303100;2023-03-01T02:40:49;22.45;;;14.70;;
7823;SDS011;3957;48.61947800;9.05303100;2023-03-01T02:41:51;18.17;;;13.00;;
7823;SDS011;3957;48.61947800;9.05303100;2023-03-01T02:42:54;20.80;;;13.48;;
7823;SDS011;3957;48.61947800;9.05303100;2023-03-01T02:43:57;20.48;;;12.85;;
7823;SDS011;3957;48.61947800;9.05303100;2023-03-01T02:44:57;19.90;;;13.00;;
7823;SDS011;3957;48.61947800;9.05303100;2023-03-01T02:45:59;18.05;;;12.07;;
7823;SDS011;3957;48.61947800;9.05303100;2023-03-01T02:47:04;19.27;;;12.57;;
7823;SDS011;3957;48.61947800;9.05303100;2023-03-01T02:48:06;19.02;;;12.82;;
7823;SDS011;3957;48.61947800;9.05303100;2023-03-01T02:49:17;18.23;;;13.30;;
7823;SDS011;3957;48.61947800;9.05303100;2023-03-01T02:54:15;22.58;;;13.52;;
7823;SDS011;3957;48.61947800;9.05303100;2023-03-01T02:55:17;17.95;;;12.40;;
7823;SDS011;3957;48.61947800;9.05303100;2023-03-01T02:56:18;17.73;;;13.07;;
7823;SDS011;3957;48.61947800;9.05303100;2023-03-01T02:57:19;21.13;;;12.83;;
7823;SDS011;3957;48.61947800;9.05303100;2023-03-01T02:58:20;20.75;;;12.75;;
7823;SDS011;3957;48.61947800;9.05303100;2023-03-01T02:59:22;19.30;;;13.00;;
7823;SDS011;3957;48.61947800;9.05303100;2023-03-01T03:00:28;19.90;;;13.43;;
7823;SDS011;3957;48.61947800;9.05303100;2023-03-01T03:01:39;19.40;;;12.38;;
7823;SDS011;3957;48.61947800;9.05303100;2023-03-01T03:02:41;17.83;;;11.95;;
7823;SDS011;3957;48.61947800;9.05303100;2023-03-01T03:03:48;18.80;;;13.07;;
7823;SDS011;3957;48.61947800;9.05303100;2023-03-01T03:04:49;21.80;;;13.63;;
7823;SDS011;3957;48.61947800;9.05303100;2023-03-01T03:05:49;22.97;;;13.00;;
7823;SDS011;3957;48.61947800;9.05303100;2023-03-01T03:06:50;21.52;;;13.48;;
7823;SDS011;3957;48.61947800;9.05303100;2023-03-01T03:07:51;17.42;;;12.27;;
7823;SDS011;3957;48.61947800;9.05303100;2023-03-01T03:08:52;18.88;;;12.57;;
7823;SDS011;3957;48.61947800;9.05303100;2023-03-01T03:09:52;19.30;;;12.80;;
7823;SDS011;3957;48.61947800;9.05303100;2023-03-01T03:10:53;21.43;;;13.13;;
7823;SDS011;3957;48.61947800;9.05303100;2023-03-01T03:11:53;17.07;;;12.33;;
7823;SDS011;3957;48.61947800;9.05303100;2023-03-01T03:12:58;21.33;;;12.27;;
7823;SDS011;3957;48.61947800;9.05303100;2023-03-01T03:14:17;17.83;;;12.35;;
7823;SDS011;3957;48.61947800;9.05303100;2023-03-01T03:15:20;20.60;;;12.88;;
7823;SDS011;3957;48.61947800;9.05303100;2023-03-01T03:16:21;18.57;;;12.93;;
7823;SDS011;3957;48.61947800;9.05303100;2023-03-01T03:17:22;18.30;;;12.67;;
7823;SDS011;3957;48.61947800;9.05303100;2023-03-01T03:18:23;19.88;;;12.55;;
7823;SDS011;3957;48.61947800;9.05303100;2023-03-01T03:19:25;20.00;;;13.25;;
7823;SDS011;3957;48.61947800;9.05303100;2023-03-01T03:20:27;17.52;;;12.15;;
7823;SDS011;3957;48.61947800;9.05303100;2023-03-01T03:21:28;18.83;;;13.07;;
7823;SDS011;3957;48.61947800;9.05303100;2023-03-01T03:22:28;19.35;;;12.93;;
7823;SDS011;3957;48.61947800;9.05303100;2023-03-01T03:23:29;19.08;;;12.48;;
7823;SDS011;3957;48.61947800;9.05303100;2023-03-01T03:24:30;18.20;;;12.30;;
7823;SDS011;3957;48.61947800;9.05303100;2023-03-01T03:25:37;18.70;;;12.88;;
7823;SDS011;3957;48.61947800;9.05303100;2023-03-01T03:26:38;18.35;;;13.02;;
7823;SDS011;3957;48.61947800;9.05303100;2023-03-01T03:27:39;20.97;;;13.27;;
7823;SDS011;3957;48.61947800;9.05303100;2023-03-01T03:28:40;19.88;;;13.10;;
7823;SDS011;3957;48.61947800;9.05303100;2023-03-01T03:29:40;19.27;;;13.43;;
7823;SDS011;3957;48.61947800;9.05303100;2023-03-01T03:30:41;17.33;;;12.70;;
7823;SDS011;3957;48.61947800;9.05303100;2023-03-01T03:31:44;18.58;;;12.43;;
7823;SDS011;3957;48.61947800;9.05303100;2023-03-01T03:32:45;19.83;;;12.40;;
7823;SDS011;3957;48.61947800;9.05303100;2023-03-01T03:33:53;21.30;;;14.00;;
7823;SDS011;3957;48.61947800;9.05303100;2023-03-01T03:34:54;18.95;;;13.07;;
7823;SDS011;3957;48.61947800;9.05303100;2023-03-01T03:35:55;20.33;;;13.47;;
7823;SDS011;3957;48.61947800;9.05303100;2023-03-01T03:36:55;19.85;;;12.32;;
7823;SDS011;3957;48.61947800;9.05303100;2023-03-01T03:38:00;18.53;;;12.63;;
7823;SDS011;3957;48.61947800;9.05303100;2023-03-01T03:39:01;22.02;;;13.38;;
7823;SDS011;3957;48.61947800;9.05303100;2023-03-01T03:40:02;19.13;;;12.90;;
7823;SDS011;3957;48.61947800;9.05303100;2023-03-01T03:41:04;21.15;;;13.40;;
7823;SDS011;3957;48.61947800;9.05303100;2023-03-01T03:42:07;21.55;;;12.73;;
7823;SDS011;3957;48.61947800;9.05303100;2023-03-01T03:43:11;18.90;;;12.47;;
7823;SDS011;3957;48.61947800;9.05303100;2023-03-01T03:44:16;19.92;;;12.93;;
7823;SDS011;3957;48.61947800;9.05303100;2023-03-01T03:45:17;20.97;;;13.53;;
7823;SDS011;3957;48.61947800;9.05303100;2023-03-01T03:46:17;18.67;;;12.93;;
7823;SDS011;3957;48.61947800;9.05303100;2023-03-01T03:47:18;20.95;;;14.07;;
7823;SDS011;3957;48.61947800;9.05303100;2023-03-01T03:48:18;18.73;;;12.97;;
7823;SDS011;3957;48.61947800;9.05303100;2023-03-01T03:49:19;19.80;;;13.60;;
7823;SDS011;3957;48.61947800;9.05303100;2023-03-01T03:50:19;21.10;;;14.07;;
7823;SDS011;3957;48.61947800;9.05303100;2023-03-01T03:51:19;21.40;;;13.67;;
7823;SDS011;3957;48.61947800;9.05303100;2023-03-01T03:52:22;19.50;;;12.80;;
7823;SDS011;3957;48.61947800;9.05303100;2023-03-01T03:53:24;19.97;;;13.07;;
7823;SDS011;3957;48.61947800;9.05303100;2023-03-01T03:54:25;18.83;;;13.15;;
7823;SDS011;3957;48.61947800;9.05303100;2023-03-01T03:55:26;22.05;;;13.90;;
7823;SDS011;3957;48.61947800;9.05303100;2023-03-01T03:56:30;20.58;;;13.75;;
7823;SDS011;3957;48.61947800;9.05303100;2023-03-01T03:57:30;19.67;;;13.27;;
7823;SDS011;3957;48.61947800;9.05303100;2023-03-01T03:58:31;18.43;;;12.67;;
7823;SDS011;3957;48.61947800;9.05303100;2023-03-01T03:59:32;20.63;;;13.57;;
7823;SDS011;3957;48.61947800;9.05303100;2023-03-01T04:00:33;21.10;;;13.93;;
7823;SDS011;3957;48.61947800;9.05303100;2023-03-01T04:01:35;22.95;;;14.10;;
7823;SDS011;3957;48.61947800;9.05303100;2023-03-01T04:02:36;21.00;;;14.07;;
7823;SDS011;3957;48.61947800;9.05303100;2023-03-01T04:03:36;20.47;;;14.20;;
7823;SDS011;3957;48.61947800;9.05303100;2023-03-01T04:04:36;25.65;;;14.35;;
7823;SDS011;3957;48.61947800;9.05303100;2023-03-01T04:05:37;21.43;;;14.17;;
7823;SDS011;3957;48.61947800;9.05303100;2023-03-01T04:06:39;21.08;;;14.00;;
7823;SDS011;3957;48.61947800;9.05303100;2023-03-01T04:07:39;20.27;;;14.47;;
7823;SDS011;3957;48.61947800;9.05303100;2023-03-01T04:08:40;21.65;;;13.85;;
7823;SDS011;3957;48.61947800;9.05303100;2023-03-01T04:09:41;21.63;;;15.25;;
7823;SDS011;3957;48.61947800;9.05303100;2023-03-01T04:10:44;18.98;;;14.02;;
7823;SDS011;3957;48.61947800;9.05303100;2023-03-01T04:11:46;20.10;;;13.95;;
7823;SDS011;3957;48.61947800;9.05303100;2023-03-01T04:12:46;23.05;;;14.00;;
7823;SDS011;3957;48.61947800;9.05303100;2023-03-01T04:13:47;21.77;;;14.10;;
7823;SDS011;3957;48.61947800;9.05303100;2023-03-01T04:14:47;23.38;;;14.82;;
7823;SDS011;3957;48.61947800;9.05303100;2023-03-01T04:15:49;23.83;;;15.43;;
7823;SDS011;3957;48.61947800;9.05303100;2023-03-01T04:16:50;24.40;;;15.90;;
7823;SDS011;3957;48.61947800;9.05303100;2023-03-01T04:17:51;21.63;;;15.17;;
7823;SDS011;3957;48.61947800;9.05303100;2023-03-01T04:18:53;25.38;;;16.33;;
7823;SDS011;3957;48.61947800;9.05303100;2023-03-01T04:19:53;23.60;;;14.80;;
7823;SDS011;3957;48.61947800;9.05303100;2023-03-01T04:20:53;21.10;;;14.73;;
7823;SDS011;3957;48.61947800;9.05303100;2023-03-01T04:21:55;22.50;;;15.27;;
7823;SDS011;3957;48.61947800;9.05303100;2023-03-01T04:23:09;23.73;;;14.33;;
7823;SDS011;3957;48.61947800;9.05303100;2023-03-01T04:24:15;20.80;;;14.43;;
7823;SDS011;3957;48.61947800;9.05303100;2023-03-01T04:25:16;23.00;;;14.25;;
7823;SDS011;3957;48.61947800;9.05303100;2023-03-01T04:26:16;24.53;;;14.60;;
7823;SDS011;3957;48.61947800;9.05303100;2023-03-01T04:27:17;25.20;;;15.37;;
7823;SDS011;3957;48.61947800;9.05303100;2023-03-01T04:28:17;22.30;;;14.90;;
7823;SDS011;3957;48.61947800;9.05303100;2023-03-01T04:29:17;21.17;;;13.90;;
7823;SDS011;3957;48.61947800;9.05303100;2023-03-01T04:30:18;20.00;;;13.73;;
7823;SDS011;3957;48.61947800;9.05303100;2023-03-01T04:31:19;22.35;;;14.13;;
7823;SDS011;3957;48.61947800;9.05303100;2023-03-01T04:32:21;20.75;;;14.02;;
7823;SDS011;3957;48.61947800;9.05303100;2023-03-01T04:33:21;21.27;;;13.80;;
7823;SDS011;3957;48.61947800;9.05303100;2023-03-01T04:34:23;21.00;;;13.88;;
7823;SDS011;3957;48.61947800;9.05303100;2023-03-01T04:35:23;20.77;;;13.93;;
7823;SDS011;3957;48.61947800;9.05303100;2023-03-01T04:36:26;19.67;;;13.37;;
7823;SDS011;3957;48.61947800;9.05303100;2023-03-01T04:37:28;19.75;;;13.63;;
7823;SDS011;3957;48.61947800;9.05303100;2023-03-01T04:38:29;19.17;;;13.07;;
7823;SDS011;3957;48.61947800;9.05303100;2023-03-01T04:39:30;19.70;;;14.40;;
7823;SDS011;3957;48.61947800;9.05303100;2023-03-01T04:40:30;21.35;;;13.90;;
7823;SDS011;3957;48.61947800;9.05303100;2023-03-01T04:41:31;20.23;;;13.43;;
7823;SDS011;3957;48.61947800;9.05303100;2023-03-01T04:42:32;21.35;;;13.30;;
7823;SDS011;3957;48.61947800;9.05303100;2023-03-01T04:43:32;22.27;;;13.63;;
7823;SDS011;3957;48.61947800;9.05303100;2023-03-01T04:44:34;19.13;;;13.55;;
7823;SDS011;3957;48.61947800;9.05303100;2023-03-01T04:45:34;21.27;;;13.90;;
7823;SDS011;3957;48.61947800;9.05303100;2023-03-01T04:46:35;21.57;;;14.27;;
7823;SDS011;3957;48.61947800;9.05303100;2023-03-01T04:47:36;22.20;;;14.25;;
7823;SDS011;3957;48.61947800;9.05303100;2023-03-01T04:48:38;20.40;;;13.82;;
7823;SDS011;3957;48.61947800;9.05303100;2023-03-01T04:49:40;17.90;;;13.10;;
7823;SDS011;3957;48.61947800;9.05303100;2023-03-01T04:50:40;20.47;;;13.83;;
7823;SDS011;3957;48.61947800;9.05303100;2023-03-01T04:51:40;21.23;;;13.70;;
7823;SDS011;3957;48.61947800;9.05303100;2023-03-01T04:52:41;20.10;;;14.20;;
7823;SDS011;3957;48.61947800;9.05303100;2023-03-01T04:53:42;23.10;;;15.73;;
7823;SDS011;3957;48.61947800;9.05303100;2023-03-01T04:54:43;23.10;;;15.20;;
7823;SDS011;3957;48.61947800;9.05303100;2023-03-01T04:55:43;25.63;;;15.73;;
7823;SDS011;3957;48.61947800;9.05303100;2023-03-01T04:56:44;21.85;;;13.95;;
7823;SDS011;3957;48.61947800;9.05303100;2023-03-01T04:57:45;19.03;;;13.97;;
7823;SDS011;3957;48.61947800;9.05303100;2023-03-01T04:58:45;21.80;;;14.48;;
7823;SDS011;3957;48.61947800;9.05303100;2023-03-01T04:59:46;21.52;;;14.23;;
7823;SDS011;3957;48.61947800;9.05303100;2023-03-01T05:00:47;21.93;;;14.60;;
7823;SDS011;3957;48.61947800;9.05303100;2023-03-01T05:01:47;21.15;;;14.35;;
7823;SDS011;3957;48.61947800;9.05303100;2023-03-01T05:02:49;21.23;;;14.18;;
7823;SDS011;3957;48.61947800;9.05303100;2023-03-01T05:03:53;21.35;;;13.88;;
7823;SDS011;3957;48.61947800;9.05303100;2023-03-01T05:04:53;19.08;;;13.23;;
7823;SDS011;3957;48.61947800;9.05303100;2023-03-01T05:05:58;22.13;;;14.18;;
7823;SDS011;3957;48.61947800;9.05303100;2023-03-01T05:06:59;23.20;;;14.82;;
7823;SDS011;3957;48.61947800;9.05303100;2023-03-01T05:08:00;22.40;;;14.27;;
7823;SDS011;3957;48.61947800;9.05303100;2023-03-01T05:09:03;21.67;;;14.98;;
7823;SDS011;3957;48.61947800;9.05303100;2023-03-01T05:10:03;21.60;;;13.97;;
7823;SDS011;3957;48.61947800;9.05303100;2023-03-01T05:11:04;23.67;;;14.43;;
7823;SDS011;3957;48.61947800;9.05303100;2023-03-01T05:12:05;21.92;;;15.00;;
7823;SDS011;3957;48.61947800;9.05303100;2023-03-01T05:13:05;22.13;;;14.75;;
7823;SDS011;3957;48.61947800;9.05303100;2023-03-01T05:14:07;22.35;;;14.85;;
7823;SDS011;3957;48.61947800;9.05303100;2023-03-01T05:15:08;24.13;;;14.60;;
7823;SDS011;3957;48.61947800;9.05303100;2023-03-01T05:16:09;21.63;;;14.30;;
7823;SDS011;3957;48.61947800;9.05303100;2023-03-01T05:17:13;20.65;;;14.43;;
7823;SDS011;3957;48.61947800;9.05303100;2023-03-01T05:18:14;23.40;;;14.33;;
7823;SDS011;3957;48.61947800;9.05303100;2023-03-01T05:19:14;22.58;;;13.65;;
7823;SDS011;3957;48.61947800;9.05303100;2023-03-01T05:20:22;22.35;;;14.57;;
7823;SDS011;3957;48.61947800;9.05303100;2023-03-01T05:21:22;23.40;;;15.17;;
7823;SDS011;3957;48.61947800;9.05303100;2023-03-01T05:22:23;22.65;;;14.60;;
7823;SDS011;3957;48.61947800;9.05303100;2023-03-01T05:23:24;22.40;;;15.07;;
7823;SDS011;3957;48.61947800;9.05303100;2023-03-01T05:24:24;21.42;;;14.63;;
7823;SDS011;3957;48.61947800;9.05303100;2023-03-01T05:25:25;23.07;;;14.80;;
7823;SDS011;3957;48.61947800;9.05303100;2023-03-01T05:26:26;21.35;;;14.20;;
7823;SDS011;3957;48.61947800;9.05303100;2023-03-01T05:27:28;21.85;;;14.52;;
7823;SDS011;3957;48.61947800;9.05303100;2023-03-01T05:28:29;21.10;;;14.45;;
7823;SDS011;3957;48.61947800;9.05303100;2023-03-01T05:29:30;24.15;;;15.48;;
7823;SDS011;3957;48.61947800;9.05303100;2023-03-01T05:30:32;23.05;;;14.52;;
7823;SDS011;3957;48.61947800;9.05303100;2023-03-01T05:31:33;20.50;;;13.68;;
7823;SDS011;3957;48.61947800;9.05303100;2023-03-01T05:32:34;22.57;;;14.77;;